createdAt,value
2018-09-14T00:00:21.840Z,100911.03
2018-09-14T00:02:50.060Z,100913.17
2018-09-14T00:05:18.263Z,100913.02
2018-09-14T00:07:46.292Z,100907.87
2018-09-14T00:10:14.880Z,100908.04
2018-09-14T00:12:42.897Z,100914.28
2018-09-14T00:15:10.881Z,100911.11
2018-09-14T00:17:39.148Z,100911.23
2018-09-14T00:20:07.890Z,100907.59
2018-09-14T00:22:35.948Z,100901.81
2018-09-14T00:25:04.025Z,100900.02
2018-09-14T00:27:32.019Z,100902.19
2018-09-14T00:29:59.990Z,100904.50
2018-09-14T00:32:29.885Z,100906.38
2018-09-14T00:34:57.915Z,100906.84
2018-09-14T00:37:26.065Z,100899.37
2018-09-14T00:39:54.018Z,100899.90
2018-09-14T00:42:22.270Z,100897.34
2018-09-14T00:44:50.266Z,100898.11
2018-09-14T00:47:18.260Z,100903.48
2018-09-14T00:49:46.325Z,100904.61
2018-09-14T00:52:14.786Z,100900.86
2018-09-14T00:54:42.795Z,100900.12
2018-09-14T00:57:11.023Z,100900.05
2018-09-14T00:59:39.457Z,100901.30
2018-09-14T01:02:07.466Z,100899.08
2018-09-14T01:04:35.530Z,100900.38
2018-09-14T01:07:04.281Z,100896.53
2018-09-14T01:09:40.440Z,100899.41
2018-09-14T01:12:08.956Z,100900.38
2018-09-14T01:17:45.775Z,100897.95
2018-09-14T01:20:13.884Z,100900.25
2018-09-14T01:22:42.100Z,100894.41
2018-09-14T01:25:10.184Z,100896.79
2018-09-14T01:27:38.178Z,100891.09
2018-09-14T01:30:06.856Z,100890.72
2018-09-14T01:32:35.034Z,100887.27
2018-09-14T01:35:07.644Z,100887.39
2018-09-14T01:37:35.756Z,100881.05
2018-09-14T01:40:03.996Z,100882.95
2018-09-14T01:42:32.276Z,100880.22
2018-09-14T01:45:00.367Z,100877.63
2018-09-14T01:47:28.576Z,100878.43
2018-09-14T01:49:56.856Z,100873.66
2018-09-14T01:52:24.825Z,100873.31
2018-09-14T01:54:53.081Z,100873.11
2018-09-14T01:57:21.160Z,100875.02
2018-09-14T01:59:49.227Z,100871.84
2018-09-14T02:02:17.402Z,100871.09
2018-09-14T02:04:45.469Z,100868.27
2018-09-14T02:07:14.103Z,100869.22
2018-09-14T02:09:42.180Z,100864.34
2018-09-14T02:12:10.398Z,100867.59
2018-09-14T02:14:38.696Z,100867.87
2018-09-14T02:17:07.216Z,100868.55
2018-09-14T02:19:35.285Z,100870.34
2018-09-14T02:22:03.517Z,100864.06
2018-09-14T02:24:31.796Z,100864.85
2018-09-14T02:26:59.790Z,100865.44
2018-09-14T02:29:27.768Z,100862.34
2018-09-14T02:31:55.773Z,100863.84
2018-09-14T02:34:24.188Z,100859.53
2018-09-14T02:36:58.808Z,100864.02
2018-09-14T02:39:26.966Z,100863.63
2018-09-14T02:41:54.940Z,100856.72
2018-09-14T02:44:23.034Z,100848.42
2018-09-14T02:46:51.123Z,100851.12
2018-09-14T02:49:19.462Z,100856.27
2018-09-14T02:51:47.907Z,100852.25
2018-09-14T02:54:16.539Z,100848.33
2018-09-14T02:56:44.842Z,100849.45
2018-09-14T02:59:12.828Z,100843.73
2018-09-14T03:01:41.140Z,100846.66
2018-09-14T03:04:09.356Z,100844.20
2018-09-14T03:06:37.599Z,100845.91
2018-09-14T03:09:07.928Z,100845.98
2018-09-14T03:11:36.491Z,100850.00
2018-09-14T03:14:04.689Z,100851.22
2018-09-14T03:16:32.969Z,100852.92
2018-09-14T03:19:01.690Z,100843.17
2018-09-14T03:21:30.142Z,100845.34
2018-09-14T03:23:58.422Z,100846.27
2018-09-14T03:26:26.691Z,100844.79
2018-09-14T03:28:54.871Z,100844.51
2018-09-14T03:31:23.136Z,100840.66
2018-09-14T03:33:51.291Z,100841.88
2018-09-14T03:36:19.538Z,100842.72
2018-09-14T03:38:48.014Z,100841.42
2018-09-14T03:41:16.285Z,100850.95
2018-09-14T03:43:44.353Z,100848.69
2018-09-14T03:46:12.447Z,100850.77
2018-09-14T03:48:40.665Z,100852.52
2018-09-14T03:51:09.045Z,100850.02
2018-09-14T03:53:37.265Z,100853.55
2018-09-14T03:56:05.354Z,100853.94
2018-09-14T03:58:33.499Z,100855.34
2018-09-14T04:01:01.802Z,100853.19
2018-09-14T04:03:29.833Z,100858.06
2018-09-14T04:05:58.140Z,100855.61
2018-09-14T04:08:26.276Z,100853.20
2018-09-14T04:10:54.590Z,100856.66
2018-09-14T04:13:22.856Z,100864.56
2018-09-14T04:15:51.067Z,100856.72
2018-09-14T04:18:19.129Z,100856.44
2018-09-14T04:20:47.408Z,100858.75
2018-09-14T04:23:15.871Z,100855.49
2018-09-14T04:25:43.869Z,100852.98
2018-09-14T04:28:11.968Z,100861.76
2018-09-14T04:30:40.540Z,100860.17
2018-09-14T04:33:08.704Z,100865.21
2018-09-14T04:35:36.699Z,100865.88
2018-09-14T04:38:04.945Z,100857.24
2018-09-14T04:40:33.263Z,100863.43
2018-09-14T04:43:01.451Z,100866.24
2018-09-14T04:45:29.871Z,100870.25
2018-09-14T04:47:57.990Z,100873.43
2018-09-14T04:50:26.217Z,100876.36
2018-09-14T04:52:54.479Z,100877.86
2018-09-14T04:55:22.586Z,100872.62
2018-09-14T04:57:50.823Z,100876.24
2018-09-14T05:00:19.091Z,100876.52
2018-09-14T05:02:47.410Z,100874.78
2018-09-14T05:05:15.704Z,100867.94
2018-09-14T05:07:44.292Z,100868.84
2018-09-14T05:10:12.456Z,100866.75
2018-09-14T05:12:40.740Z,100863.84
2018-09-14T05:15:08.900Z,100866.12
2018-09-14T05:17:37.171Z,100870.94
2018-09-14T05:20:05.331Z,100875.48
2018-09-14T05:22:33.631Z,100869.61
2018-09-14T05:25:01.818Z,100876.86
2018-09-14T05:27:30.041Z,100874.59
2018-09-14T05:29:58.301Z,100873.28
2018-09-14T05:32:26.369Z,100878.86
2018-09-14T05:34:54.606Z,100880.08
2018-09-14T05:37:22.763Z,100876.20
2018-09-14T05:39:50.891Z,100883.56
2018-09-14T05:42:19.072Z,100890.30
2018-09-14T05:44:47.238Z,100891.61
2018-09-14T05:47:15.428Z,100888.45
2018-09-14T05:49:43.652Z,100891.55
2018-09-14T05:52:11.925Z,100890.81
2018-09-14T05:54:40.325Z,100887.44
2018-09-14T05:57:08.084Z,100893.44
2018-09-14T05:59:36.284Z,100897.64
2018-09-14T06:02:04.503Z,100895.13
2018-09-14T06:04:32.783Z,100900.02
2018-09-14T06:07:01.022Z,100903.69
2018-09-14T06:09:29.267Z,100903.95
2018-09-14T06:11:57.442Z,100901.63
2018-09-14T06:14:25.665Z,100905.92
2018-09-14T06:16:53.910Z,100913.88
2018-09-14T06:19:22.142Z,100913.41
2018-09-14T06:21:50.388Z,100917.28
2018-09-14T06:24:18.588Z,100915.98
2018-09-14T06:26:46.806Z,100917.08
2018-09-14T06:29:15.388Z,100923.96
2018-09-14T06:31:43.522Z,100915.03
2018-09-14T06:34:11.786Z,100928.27
2018-09-14T06:36:39.914Z,100921.95
2018-09-14T06:39:10.442Z,100917.80
2018-09-14T06:41:38.723Z,100914.17
2018-09-14T06:44:07.010Z,100911.54
2018-09-14T06:46:35.014Z,100914.85
2018-09-14T06:49:04.965Z,100910.56
2018-09-14T06:51:33.366Z,100908.23
2018-09-14T06:54:01.684Z,100908.41
2018-09-14T06:56:29.688Z,100910.62
2018-09-14T06:58:57.932Z,100907.13
2018-09-14T07:01:26.161Z,100907.95
2018-09-14T07:03:54.352Z,100908.55
2018-09-14T07:06:22.572Z,100911.84
2018-09-14T07:08:50.809Z,100907.69
2018-09-14T07:11:18.822Z,100906.71
2018-09-14T07:13:47.279Z,100906.86
2018-09-14T07:16:15.555Z,100908.93
2018-09-14T07:18:43.800Z,100909.42
2018-09-14T07:21:11.957Z,100904.41
2018-09-14T07:23:40.291Z,100900.27
2018-09-14T07:26:08.355Z,100903.98
2018-09-14T07:28:36.547Z,100900.86
2018-09-14T07:31:05.142Z,100905.99
2018-09-14T07:33:33.341Z,100908.63
2018-09-14T07:36:01.512Z,100909.48
2018-09-14T07:38:29.889Z,100909.58
2018-09-14T07:40:58.135Z,100904.45
2018-09-14T07:43:26.234Z,100904.31
2018-09-14T07:45:54.313Z,100907.80
2018-09-14T07:48:22.432Z,100906.86
2018-09-14T07:50:50.928Z,100908.89
2018-09-14T07:53:19.348Z,100904.97
2018-09-14T07:55:47.740Z,100906.33
2018-09-14T07:58:15.954Z,100904.85
2018-09-14T08:00:44.366Z,100912.66
2018-09-14T08:03:12.376Z,100910.66
2018-09-14T08:05:40.657Z,100914.61
2018-09-14T08:08:08.846Z,100914.78
2018-09-14T08:10:37.130Z,100912.95
2018-09-14T08:13:05.562Z,100914.73
2018-09-14T08:15:34.067Z,100914.71
2018-09-14T08:18:02.239Z,100906.75
2018-09-14T08:20:30.932Z,100912.33
2018-09-14T08:22:59.015Z,100914.55
2018-09-14T08:25:27.218Z,100920.22
2018-09-14T08:27:55.303Z,100926.75
2018-09-14T08:30:23.597Z,100930.11
2018-09-14T08:32:51.797Z,100928.76
2018-09-14T08:35:20.056Z,100932.29
2018-09-14T08:37:48.420Z,100931.67
2018-09-14T08:40:16.846Z,100933.50
2018-09-14T08:42:45.232Z,100923.61
2018-09-14T08:45:13.492Z,100930.55
2018-09-14T08:47:41.873Z,100928.92
2018-09-14T08:50:10.166Z,100934.52
2018-09-14T08:52:38.246Z,100936.41
2018-09-14T08:55:06.694Z,100934.40
2018-09-14T08:57:34.954Z,100938.95
2018-09-14T09:00:03.178Z,100938.73
2018-09-14T09:02:31.295Z,100941.67
2018-09-14T09:04:59.682Z,100942.76
2018-09-14T09:07:27.993Z,100942.84
2018-09-14T09:09:56.385Z,100947.76
2018-09-14T09:12:24.574Z,100944.47
2018-09-14T09:14:53.054Z,100941.97
2018-09-14T09:17:21.245Z,100939.02
2018-09-14T09:19:49.512Z,100936.97
2018-09-14T09:22:17.807Z,100937.03
2018-09-14T09:24:46.273Z,100931.46
2018-09-14T09:27:14.393Z,100939.85
2018-09-14T09:29:42.601Z,100935.77
2018-09-14T09:32:10.815Z,100944.77
2018-09-14T09:34:39.041Z,100938.98
2018-09-14T09:37:07.474Z,100943.89
2018-09-14T09:39:36.285Z,100937.98
2018-09-14T09:42:04.693Z,100936.31
2018-09-14T09:44:32.873Z,100940.88
2018-09-14T09:47:01.332Z,100941.06
2018-09-14T09:49:29.793Z,100944.50
2018-09-14T09:51:58.193Z,100940.27
2018-09-14T09:54:26.295Z,100942.70
2018-09-14T09:56:54.625Z,100944.28
2018-09-14T09:59:22.940Z,100949.48
2018-09-14T10:01:56.696Z,100942.45
2018-09-14T10:05:30.674Z,100932.63
2018-09-14T10:07:58.813Z,100942.37
2018-09-14T10:10:27.185Z,100941.05
2018-09-14T10:12:55.473Z,100938.09
2018-09-14T10:15:25.053Z,100935.88
2018-09-14T10:17:53.313Z,100934.41
2018-09-14T10:20:21.533Z,100934.39
2018-09-14T10:22:49.935Z,100933.31
2018-09-14T10:25:18.297Z,100926.10
2018-09-14T10:27:46.533Z,100927.33
2018-09-14T10:30:15.613Z,100924.80
2018-09-14T10:32:44.844Z,100931.79
2018-09-14T10:35:13.156Z,100924.92
2018-09-14T10:37:41.687Z,100923.47
2018-09-14T10:40:10.027Z,100926.89
2018-09-14T10:42:38.344Z,100930.12
2018-09-14T10:45:06.700Z,100926.38
2018-09-14T10:47:35.055Z,100912.88
2018-09-14T10:50:03.423Z,100912.23
2018-09-14T10:52:31.975Z,100910.95
2018-09-14T10:55:00.453Z,100913.30
2018-09-14T10:57:28.787Z,100909.51
2018-09-14T10:59:57.243Z,100903.36
2018-09-14T11:02:25.595Z,100893.36
2018-09-14T11:04:53.855Z,100889.20
2018-09-14T11:07:22.288Z,100886.02
2018-09-14T11:09:50.646Z,100879.64
2018-09-14T11:12:19.035Z,100872.16
2018-09-14T11:14:48.294Z,100872.19
2018-09-14T11:17:16.707Z,100869.70
2018-09-14T11:19:44.976Z,100870.94
2018-09-14T11:22:13.755Z,100881.11
2018-09-14T11:24:42.212Z,100879.48
2018-09-14T11:27:11.576Z,100873.77
2018-09-14T11:29:39.836Z,100872.00
2018-09-14T11:32:08.296Z,100880.68
2018-09-14T11:34:37.077Z,100878.38
2018-09-14T11:37:06.077Z,100869.53
2018-09-14T11:39:34.336Z,100859.02
2018-09-14T11:42:02.655Z,100854.59
2018-09-14T11:44:31.122Z,100857.25
2018-09-14T11:46:59.436Z,100843.09
2018-09-14T11:49:27.596Z,100837.09
2018-09-14T11:51:55.988Z,100836.91
2018-09-14T11:54:24.262Z,100840.53
2018-09-14T11:56:52.688Z,100825.99
2018-09-14T11:59:20.896Z,100820.75
2018-09-14T12:01:49.541Z,100806.49
2018-09-14T12:04:17.943Z,100804.80
2018-09-14T12:06:47.796Z,100801.11
2018-09-14T12:09:16.108Z,100799.09
2018-09-14T12:11:46.339Z,100801.11
2018-09-14T12:14:14.936Z,100802.59
2018-09-14T12:16:43.264Z,100793.26
2018-09-14T12:19:12.537Z,100795.98
2018-09-14T12:21:40.892Z,100792.27
2018-09-14T12:24:09.757Z,100789.90
2018-09-14T12:26:41.416Z,100768.63
2018-09-14T12:29:09.778Z,100771.97
2018-09-14T12:31:38.517Z,100766.54
2018-09-14T12:34:07.348Z,100768.44
2018-09-14T12:36:35.736Z,100755.92
2018-09-14T12:39:06.818Z,100755.02
2018-09-14T12:41:35.396Z,100757.17
2018-09-14T12:44:03.825Z,100748.66
2018-09-14T12:46:32.197Z,100762.25
2018-09-14T12:51:34.436Z,100761.49
2018-09-14T12:54:02.708Z,100762.55
2018-09-14T12:56:39.729Z,100758.87
2018-09-14T12:59:08.376Z,100759.42
2018-09-14T13:01:36.728Z,100753.21
2018-09-14T13:04:06.769Z,100749.47
2018-09-14T13:06:35.248Z,100747.15
2018-09-14T13:09:04.104Z,100754.75
2018-09-14T13:11:32.996Z,100755.45
2018-09-14T13:14:01.576Z,100753.30
2018-09-14T13:16:29.949Z,100757.42
2018-09-14T13:18:58.477Z,100743.67
2018-09-14T13:21:27.676Z,100743.10
2018-09-14T13:23:57.036Z,100748.50
2018-09-14T13:26:26.729Z,100733.97
2018-09-14T13:28:56.128Z,100738.27
2018-09-14T13:31:24.371Z,100736.43
2018-09-14T13:33:52.628Z,100731.28
2018-09-14T13:36:20.803Z,100730.12
2018-09-14T13:38:49.311Z,100737.25
2018-09-14T13:41:17.774Z,100737.80
2018-09-14T13:43:45.891Z,100737.48
2018-09-14T13:46:14.223Z,100732.53
2018-09-14T13:48:43.583Z,100730.80
2018-09-14T13:51:11.811Z,100735.11
2018-09-14T13:53:40.755Z,100748.03
2018-09-14T13:56:08.971Z,100745.47
2018-09-14T13:58:38.290Z,100738.10
2018-09-14T14:01:06.889Z,100737.11
2018-09-14T14:03:37.224Z,100724.97
2018-09-14T14:06:06.771Z,100728.25
2018-09-14T14:08:36.432Z,100706.80
2018-09-14T14:11:06.303Z,100712.61
2018-09-14T14:13:34.631Z,100720.56
2018-09-14T14:16:03.687Z,100711.80
2018-09-14T14:18:31.913Z,100716.14
2018-09-14T14:21:00.728Z,100709.59
2018-09-14T14:23:29.051Z,100716.06
2018-09-14T14:25:57.359Z,100716.97
2018-09-14T14:28:25.687Z,100704.09
2018-09-14T14:30:54.411Z,100704.78
2018-09-14T14:33:23.593Z,100695.84
2018-09-14T14:35:53.282Z,100693.16
2018-09-14T14:38:21.644Z,100697.20
2018-09-14T14:40:49.943Z,100695.55
2018-09-14T14:43:18.163Z,100683.91
2018-09-14T14:45:46.423Z,100686.88
2018-09-14T14:48:14.612Z,100687.91
2018-09-14T14:50:43.060Z,100689.98
2018-09-14T14:53:11.336Z,100673.89
2018-09-14T14:55:39.604Z,100673.62
2018-09-14T14:58:10.856Z,100678.59
2018-09-14T15:00:39.140Z,100669.98
2018-09-14T15:03:09.764Z,100664.41
2018-09-14T15:05:38.024Z,100675.70
2018-09-14T15:08:06.464Z,100669.81
2018-09-14T15:10:34.907Z,100661.86
2018-09-14T15:13:03.696Z,100653.82
2018-09-14T15:15:32.336Z,100665.66
2018-09-14T15:18:00.623Z,100656.05
2018-09-14T15:20:28.944Z,100667.00
2018-09-14T15:22:57.464Z,100666.22
2018-09-14T15:25:25.764Z,100661.27
2018-09-14T15:27:56.364Z,100663.78
2018-09-14T15:30:24.784Z,100659.91
2018-09-14T15:32:53.344Z,100662.92
2018-09-14T15:35:21.969Z,100661.81
2018-09-14T15:37:50.384Z,100659.56
2018-09-14T15:40:18.692Z,100656.89
2018-09-14T15:42:46.799Z,100657.61
2018-09-14T15:45:15.016Z,100662.33
2018-09-14T15:47:43.276Z,100660.44
2018-09-14T15:50:11.436Z,100665.58
2018-09-14T15:52:39.621Z,100665.83
2018-09-14T15:55:08.001Z,100667.40
2018-09-14T15:57:36.210Z,100670.36
2018-09-14T16:00:08.929Z,100672.64
2018-09-14T16:16:17.581Z,100659.45
2018-09-14T16:18:45.709Z,100665.13
2018-09-14T16:21:13.961Z,100665.95
2018-09-14T16:23:42.193Z,100668.13
2018-09-14T16:26:10.564Z,100669.12
2018-09-14T16:28:38.561Z,100672.13
2018-09-14T16:31:07.211Z,100674.47
2018-09-14T16:33:35.494Z,100669.97
2018-09-14T16:36:03.671Z,100670.14
2018-09-14T16:38:31.785Z,100660.98
2018-09-14T16:40:59.956Z,100664.34
2018-09-14T16:43:28.111Z,100660.98
2018-09-14T16:45:56.332Z,100665.50
2018-09-14T16:48:24.542Z,100665.16
2018-09-14T16:50:52.816Z,100668.48
2018-09-14T16:53:21.042Z,100655.33
2018-09-14T16:55:49.302Z,100649.34
2018-09-14T16:58:17.536Z,100654.19
2018-09-14T17:00:45.665Z,100656.52
2018-09-14T17:03:13.803Z,100655.17
2018-09-14T17:05:42.109Z,100661.80
2018-09-14T17:08:10.333Z,100664.13
2018-09-14T17:10:38.533Z,100668.77
2018-09-14T17:13:06.936Z,100671.23
2018-09-14T17:15:35.216Z,100675.03
2018-09-14T17:18:04.495Z,100671.64
2018-09-14T17:20:32.912Z,100683.58
2018-09-14T17:23:01.075Z,100681.53
2018-09-14T17:25:29.415Z,100677.94
2018-09-14T17:27:57.587Z,100674.10
2018-09-14T17:30:26.646Z,100677.01
2018-09-14T17:32:54.884Z,100673.99
2018-09-14T17:35:23.150Z,100675.50
2018-09-14T17:37:51.481Z,100669.06
2018-09-14T17:40:19.552Z,100674.27
2018-09-14T17:42:47.727Z,100675.13
2018-09-14T17:45:16.873Z,100673.69
2018-09-14T17:47:45.246Z,100679.69
2018-09-14T17:50:13.480Z,100679.88
2018-09-14T17:52:41.970Z,100673.44
2018-09-14T17:55:10.106Z,100673.25
2018-09-14T17:57:38.213Z,100675.95
2018-09-14T18:00:06.711Z,100677.59
2018-09-14T18:02:35.209Z,100673.12
2018-09-14T18:05:03.621Z,100676.63
2018-09-14T18:07:32.109Z,100682.14
2018-09-14T18:10:00.581Z,100680.00
2018-09-14T18:12:29.786Z,100680.45
2018-09-14T18:14:58.225Z,100679.95
2018-09-14T18:17:27.066Z,100689.28
2018-09-14T18:19:55.501Z,100687.42
2018-09-14T18:22:23.752Z,100688.73
2018-09-14T18:24:51.990Z,100696.20
2018-09-14T18:27:20.130Z,100697.53
2018-09-14T18:29:48.321Z,100697.69
2018-09-14T18:32:16.565Z,100700.19
2018-09-14T18:34:44.732Z,100699.39
2018-09-14T18:37:12.943Z,100700.91
2018-09-14T18:39:41.088Z,100695.49
2018-09-14T18:42:09.405Z,100699.04
2018-09-14T18:44:37.673Z,100697.64
2018-09-14T18:47:06.462Z,100686.66
2018-09-14T18:49:34.786Z,100690.86
2018-09-14T18:52:02.975Z,100689.53
2018-09-14T18:54:32.165Z,100691.81
2018-09-14T18:57:00.380Z,100686.64
2018-09-14T18:59:29.562Z,100682.65
2018-09-14T19:01:57.707Z,100694.64
2018-09-14T19:04:26.841Z,100691.91
2018-09-14T19:06:54.913Z,100695.86
2018-09-14T19:09:23.116Z,100692.92
2018-09-14T19:11:51.309Z,100694.33
2018-09-14T19:14:19.510Z,100697.09
2018-09-14T19:16:47.662Z,100691.91
2018-09-14T19:19:16.241Z,100695.66
2018-09-14T19:21:44.424Z,100694.77
2018-09-14T19:24:12.670Z,100690.58
2018-09-14T19:26:40.850Z,100697.73
2018-09-14T19:29:09.130Z,100698.87
2018-09-14T19:31:37.371Z,100698.53
2018-09-14T19:34:05.724Z,100701.32
2018-09-14T19:36:34.685Z,100703.58
2018-09-14T19:39:03.241Z,100701.86
2018-09-14T19:41:32.088Z,100708.67
2018-09-14T19:44:00.260Z,100709.37
2018-09-14T19:46:28.471Z,100712.05
2018-09-14T19:48:56.666Z,100715.17
2018-09-14T19:51:24.822Z,100710.20
2018-09-14T19:53:53.012Z,100717.02
2018-09-14T19:56:21.207Z,100708.93
2018-09-14T19:58:50.618Z,100700.89
2018-09-14T20:01:18.738Z,100708.03
2018-09-14T20:03:46.969Z,100709.03
2018-09-14T20:06:15.346Z,100704.06
2018-09-14T20:08:43.694Z,100704.70
2018-09-14T20:11:12.113Z,100707.31
2018-09-14T20:13:40.391Z,100716.81
2018-09-14T20:16:08.634Z,100719.70
2018-09-14T20:18:37.847Z,100715.88
2018-09-14T21:34:32.715Z,100738.70
2018-09-14T21:37:00.965Z,100747.20
2018-09-14T21:39:30.881Z,100747.54
2018-09-14T21:41:59.571Z,100750.77
2018-09-14T21:44:28.670Z,100754.98
2018-09-14T21:46:57.156Z,100756.52
2018-09-14T21:49:25.240Z,100756.39
2018-09-14T21:51:55.323Z,100759.25
2018-09-14T21:54:23.504Z,100752.70
2018-09-14T21:56:52.104Z,100760.67
2018-09-14T21:59:20.216Z,100754.80
2018-09-14T22:01:48.950Z,100752.16
2018-09-14T22:04:17.189Z,100756.95
2018-09-14T22:06:48.151Z,100759.34
2018-09-14T22:09:16.940Z,100764.71
2018-09-14T22:11:45.280Z,100762.83
2018-09-14T22:14:13.260Z,100762.37
2018-09-14T22:16:42.492Z,100765.11
2018-09-14T22:19:10.517Z,100763.50
2018-09-14T22:21:38.972Z,100754.37
2018-09-14T22:24:07.081Z,100757.22
2018-09-14T22:26:35.162Z,100765.32
2018-09-14T22:29:04.556Z,100769.34
2018-09-14T22:31:33.041Z,100773.72
2018-09-14T22:34:01.168Z,100776.61
2018-09-14T22:36:29.407Z,100770.00
2018-09-14T22:38:57.386Z,100770.70
2018-09-14T22:41:28.375Z,100761.27
2018-09-14T22:43:56.530Z,100769.79
2018-09-14T22:46:24.812Z,100761.89
2018-09-14T22:48:54.141Z,100769.42
2018-09-14T22:51:22.267Z,100771.70
2018-09-14T22:53:50.326Z,100766.02
2018-09-14T22:56:20.401Z,100760.49
2018-09-14T22:58:48.940Z,100765.45
2018-09-14T23:01:18.695Z,100761.22
2018-09-14T23:03:48.416Z,100760.44
2018-09-14T23:06:17.695Z,100766.86
2018-09-14T23:08:47.160Z,100775.41
2018-09-14T23:11:15.385Z,100774.17
2018-09-14T23:13:44.712Z,100775.83
2018-09-14T23:16:13.695Z,100773.39
2018-09-14T23:18:42.087Z,100776.09
2018-09-14T23:21:10.295Z,100778.69
2018-09-14T23:23:38.920Z,100786.20
2018-09-14T23:26:10.633Z,100785.94
2018-09-14T23:28:38.947Z,100787.45
2018-09-14T23:31:07.150Z,100796.84
2018-09-14T23:33:36.391Z,100792.81
2018-09-14T23:36:04.578Z,100791.04
2018-09-14T23:38:33.029Z,100789.50
2018-09-14T23:41:01.300Z,100804.81
2018-09-14T23:43:29.524Z,100802.23
2018-09-14T23:45:57.913Z,100806.86
2018-09-14T23:48:26.014Z,100806.03
2018-09-14T23:50:54.254Z,100804.27
2018-09-14T23:53:22.221Z,100799.44
2018-09-14T23:55:50.611Z,100801.91
2018-09-14T23:58:18.690Z,100803.50
